Time;durP1;ratioP1;P1;durP2;ratioP2;P2;SDS_P1;SDS_P2;PMS_P1;PMS_P2;Temp;Humidity;BMP_temperature;BMP_pressure;BME280_temperature;BME280_humidity;BME280_pressure;Samples;Min_cycle;Max_cycle;Signal;HPM_P1;HPM_P2
2023/07/17 00:01:18;;;;;;;4.72;2.90;;;17.20;99.90;;;;;;4964292;28;20036;-80
2023/07/17 00:03:45;;;;;;;4.18;2.50;;;17.30;99.90;;;;;;4955667;29;20047;-79
2023/07/17 00:06:10;;;;;;;3.78;2.63;;;17.30;99.90;;;;;;4957332;28;20031;-79
2023/07/17 00:08:36;;;;;;;3.80;2.55;;;17.30;99.90;;;;;;4955432;28;20083;-80
2023/07/17 00:11:02;;;;;;;4.85;2.60;;;17.30;99.90;;;;;;4962269;28;20637;-80
2023/07/17 00:13:28;;;;;;;4.10;2.30;;;17.40;99.90;;;;;;4974133;28;20111;-79
2023/07/17 00:15:53;;;;;;;4.10;2.45;;;17.30;99.90;;;;;;4964912;28;20027;-79
2023/07/17 00:18:19;;;;;;;5.40;3.03;;;17.30;99.90;;;;;;4965633;28;20056;-80
2023/07/17 00:20:45;;;;;;;3.40;2.67;;;17.30;99.90;;;;;;4966891;28;20038;-79
2023/07/17 00:23:11;;;;;;;5.15;2.85;;;17.30;99.90;;;;;;4968647;28;20031;-80
2023/07/17 00:25:37;;;;;;;5.53;2.90;;;17.30;99.90;;;;;;4957580;28;20046;-80
2023/07/17 00:28:02;;;;;;;3.47;2.60;;;17.30;99.90;;;;;;4967418;28;20393;-79
2023/07/17 00:30:28;;;;;;;3.08;2.45;;;17.20;99.90;;;;;;4986031;28;21480;-79
2023/07/17 00:32:55;;;;;;;3.75;2.55;;;17.20;99.90;;;;;;4971022;28;20050;-79
2023/07/17 00:35:21;;;;;;;4.55;2.40;;;17.20;99.90;;;;;;4970740;28;20046;-80
2023/07/17 00:37:47;;;;;;;3.42;2.50;;;17.20;99.90;;;;;;4961892;28;20149;-79
2023/07/17 00:40:13;;;;;;;5.18;2.70;;;17.30;99.90;;;;;;4956566;28;20043;-78
2023/07/17 00:42:39;;;;;;;5.53;2.63;;;17.30;99.90;;;;;;4962750;28;20135;-79
2023/07/17 00:45:06;;;;;;;5.05;2.30;;;17.30;99.90;;;;;;4936889;29;20055;-79
2023/07/17 00:47:32;;;;;;;4.13;2.38;;;17.30;99.90;;;;;;4966639;28;20043;-79
2023/07/17 00:50:00;;;;;;;4.05;2.70;;;17.30;99.90;;;;;;4955605;28;20517;-79
2023/07/17 00:52:27;;;;;;;4.03;2.88;;;17.30;99.90;;;;;;4980964;28;20039;-80
2023/07/17 00:54:53;;;;;;;4.45;2.75;;;17.30;99.90;;;;;;4967030;28;20429;-81
2023/07/17 00:57:22;;;;;;;6.20;2.50;;;17.30;99.90;;;;;;4965664;28;20482;-81
2023/07/17 00:59:50;;;;;;;4.22;2.40;;;17.40;99.90;;;;;;4953704;28;20138;-80
2023/07/17 01:02:16;;;;;;;3.40;2.22;;;17.40;99.90;;;;;;4960628;28;20382;-79
2023/07/17 01:04:45;;;;;;;4.20;2.70;;;17.40;99.90;;;;;;4975576;28;20455;-82
2023/07/17 01:07:14;;;;;;;4.97;2.50;;;17.30;99.90;;;;;;4960974;28;20043;-81
2023/07/17 01:09:40;;;;;;;6.15;2.28;;;17.40;99.90;;;;;;4934870;29;20040;-80
2023/07/17 01:12:06;;;;;;;2.88;2.13;;;17.40;99.90;;;;;;4966564;28;20035;-81
2023/07/17 01:14:32;;;;;;;6.35;3.00;;;17.40;99.90;;;;;;4958509;28;20110;-81
2023/07/17 01:16:58;;;;;;;3.75;2.50;;;17.30;99.90;;;;;;4975679;28;20509;-80
2023/07/17 01:19:24;;;;;;;5.38;2.38;;;17.30;99.90;;;;;;4969680;28;20027;-80
2023/07/17 01:21:56;;;;;;;4.68;2.50;;;17.40;99.90;;;;;;4968067;28;20050;-80
2023/07/17 01:24:22;;;;;;;3.10;2.30;;;17.30;99.90;;;;;;4970062;28;20556;-80
2023/07/17 01:26:50;;;;;;;4.75;2.95;;;17.30;99.90;;;;;;4961290;28;20070;-80
2023/07/17 01:29:16;;;;;;;3.47;2.25;;;17.30;99.90;;;;;;4962807;28;20054;-80
2023/07/17 01:31:42;;;;;;;3.28;2.28;;;17.30;99.90;;;;;;4967947;28;20062;-80
2023/07/17 01:34:09;;;;;;;4.72;2.70;;;17.30;99.90;;;;;;4974813;28;20502;-80
2023/07/17 01:36:35;;;;;;;4.28;3.08;;;17.30;99.90;;;;;;4974006;28;20033;-81
2023/07/17 01:39:02;;;;;;;5.13;2.60;;;17.30;99.90;;;;;;4974144;28;20083;-81
2023/07/17 01:41:28;;;;;;;3.28;2.70;;;17.20;99.90;;;;;;4969704;28;20050;-81
2023/07/17 01:43:56;;;;;;;4.88;3.00;;;17.10;99.90;;;;;;4970259;28;20119;-81
2023/07/17 01:46:22;;;;;;;3.80;2.55;;;17.10;99.90;;;;;;4975037;28;20054;-82
2023/07/17 01:48:48;;;;;;;3.38;2.13;;;17.10;99.90;;;;;;4969838;28;20038;-78
2023/07/17 01:51:14;;;;;;;4.60;2.60;;;17.10;99.90;;;;;;4970222;28;20634;-80
2023/07/17 01:53:40;;;;;;;4.82;2.45;;;17.00;99.90;;;;;;4970859;28;20053;-81
2023/07/17 01:56:06;;;;;;;3.83;2.67;;;17.00;99.90;;;;;;4972203;28;20039;-82
2023/07/17 01:58:32;;;;;;;5.20;2.90;;;17.00;99.90;;;;;;4967350;28;20640;-79
2023/07/17 02:00:57;;;;;;;4.07;2.88;;;17.00;99.90;;;;;;4972327;28;20022;-80
2023/07/17 02:03:23;;;;;;;4.35;2.58;;;16.90;99.90;;;;;;4966351;28;20118;-81
2023/07/17 02:05:50;;;;;;;6.00;2.88;;;16.90;99.90;;;;;;4969291;28;20031;-81
2023/07/17 02:08:16;;;;;;;2.75;2.38;;;16.80;99.90;;;;;;4964407;28;20037;-79
2023/07/17 02:10:42;;;;;;;4.28;3.08;;;16.80;99.90;;;;;;4960375;28;20028;-80
2023/07/17 02:13:09;;;;;;;4.72;2.78;;;16.70;99.90;;;;;;4960821;28;20070;-80
2023/07/17 02:15:36;;;;;;;5.63;2.80;;;16.70;99.90;;;;;;4958745;28;20031;-80
2023/07/17 02:18:01;;;;;;;3.50;2.55;;;16.70;99.90;;;;;;4962043;28;20083;-79
2023/07/17 02:20:28;;;;;;;4.32;2.88;;;16.60;99.90;;;;;;4975902;28;20057;-80
2023/07/17 02:22:54;;;;;;;3.30;2.65;;;16.60;99.90;;;;;;4972904;28;20023;-80
2023/07/17 02:25:20;;;;;;;3.65;2.55;;;16.50;99.90;;;;;;4962478;28;20031;-79
2023/07/17 02:27:46;;;;;;;7.18;2.85;;;16.60;99.90;;;;;;4970937;28;20039;-81
2023/07/17 02:30:12;;;;;;;5.82;2.70;;;16.50;99.90;;;;;;4973125;28;20055;-82
2023/07/17 02:32:37;;;;;;;5.22;3.30;;;16.50;99.90;;;;;;4973196;28;20440;-78
2023/07/17 02:35:04;;;;;;;6.32;3.20;;;16.50;99.90;;;;;;4967693;28;20118;-79
2023/07/17 02:37:30;;;;;;;3.58;3.05;;;16.50;99.90;;;;;;4962481;28;20043;-79
2023/07/17 02:39:56;;;;;;;4.68;3.22;;;16.50;99.90;;;;;;4961518;28;20015;-80
2023/07/17 02:42:22;;;;;;;4.43;3.13;;;16.50;99.90;;;;;;4967095;28;20104;-80
2023/07/17 02:44:48;;;;;;;5.10;3.30;;;16.50;99.90;;;;;;4967394;28;20652;-80
2023/07/17 02:47:15;;;;;;;4.88;3.30;;;16.50;99.90;;;;;;4960142;28;20051;-79
2023/07/17 02:49:42;;;;;;;6.05;3.25;;;16.40;99.90;;;;;;4958799;28;20533;-80
2023/07/17 02:52:08;;;;;;;4.63;3.00;;;16.40;99.90;;;;;;4960499;28;20102;-80
2023/07/17 02:54:36;;;;;;;3.60;3.00;;;16.40;99.90;;;;;;4970144;28;20122;-80
2023/07/17 02:57:04;;;;;;;3.85;2.97;;;16.40;99.90;;;;;;4955372;28;20063;-82
2023/07/17 02:59:30;;;;;;;4.18;3.10;;;16.40;99.90;;;;;;4966272;28;20101;-81
2023/07/17 03:01:56;;;;;;;4.18;3.53;;;16.30;99.90;;;;;;4964127;28;20114;-82
2023/07/17 03:04:22;;;;;;;5.03;3.10;;;16.30;99.90;;;;;;4960500;28;20058;-79
2023/07/17 03:06:48;;;;;;;3.58;3.05;;;16.30;99.90;;;;;;4957886;28;20039;-80
2023/07/17 03:09:13;;;;;;;4.95;3.47;;;16.30;99.90;;;;;;4960242;28;20043;-80
2023/07/17 03:11:39;;;;;;;4.45;3.13;;;16.20;99.90;;;;;;4962193;28;20062;-80
2023/07/17 03:14:05;;;;;;;8.73;3.40;;;16.20;99.90;;;;;;4974234;28;20031;-81
2023/07/17 03:16:31;;;;;;;4.78;3.47;;;16.10;99.90;;;;;;4966211;28;20037;-82
2023/07/17 03:18:57;;;;;;;5.00;3.30;;;16.10;99.90;;;;;;4968124;28;20023;-81
2023/07/17 03:21:23;;;;;;;5.65;2.85;;;16.10;99.90;;;;;;4965844;28;20039;-80
2023/07/17 03:23:48;;;;;;;5.35;3.20;;;16.10;99.90;;;;;;4949579;28;20039;-80
2023/07/17 03:26:14;;;;;;;6.18;3.45;;;16.10;99.90;;;;;;4964216;28;20031;-80
2023/07/17 03:28:40;;;;;;;3.67;3.30;;;16.10;99.90;;;;;;4985906;28;20053;-80
2023/07/17 03:31:07;;;;;;;8.63;3.22;;;16.10;99.90;;;;;;4985729;28;20049;-79
2023/07/17 03:33:36;;;;;;;5.32;3.75;;;16.10;99.90;;;;;;4972390;28;20104;-82
2023/07/17 03:36:05;;;;;;;5.78;3.75;;;16.10;99.90;;;;;;4959212;28;20031;-80
2023/07/17 03:38:30;;;;;;;6.85;3.30;;;16.20;99.90;;;;;;4956878;28;20494;-79
2023/07/17 03:40:56;;;;;;;5.18;3.30;;;16.20;99.90;;;;;;4951662;28;20038;-80
2023/07/17 03:43:22;;;;;;;5.25;3.40;;;16.20;99.90;;;;;;4946961;28;20034;-80
2023/07/17 03:45:51;;;;;;;5.25;3.22;;;16.20;99.90;;;;;;4956707;28;20027;-80
2023/07/17 03:48:17;;;;;;;3.97;3.33;;;16.30;99.90;;;;;;4946564;28;20047;-80
2023/07/17 03:50:43;;;;;;;6.05;3.72;;;16.30;99.90;;;;;;4955489;28;20208;-81
2023/07/17 03:53:09;;;;;;;8.30;4.03;;;16.30;99.90;;;;;;4962223;28;20137;-80
2023/07/17 03:55:36;;;;;;;8.05;3.90;;;16.30;99.90;;;;;;4958633;28;20043;-79
2023/07/17 03:58:03;;;;;;;6.43;3.45;;;16.30;99.90;;;;;;4964808;28;20023;-83
2023/07/17 04:00:30;;;;;;;4.35;3.15;;;16.40;99.90;;;;;;4947015;28;20046;-79
2023/07/17 04:02:55;;;;;;;3.88;3.03;;;16.40;99.90;;;;;;4966387;28;20035;-79
2023/07/17 04:05:36;;;;;;;4.93;3.17;;;16.50;99.90;;;;;;4973460;28;20030;-79
2023/07/17 04:08:02;;;;;;;5.55;3.88;;;16.50;99.90;;;;;;4972271;28;20039;-79
2023/07/17 04:10:29;;;;;;;3.92;3.20;;;16.50;99.90;;;;;;4966510;28;20085;-79
2023/07/17 04:12:55;;;;;;;5.68;3.88;;;16.50;99.90;;;;;;4966826;28;20035;-80
2023/07/17 04:15:21;;;;;;;6.22;3.40;;;16.50;99.90;;;;;;4960890;28;20557;-80
2023/07/17 04:17:47;;;;;;;5.13;3.90;;;16.60;99.90;;;;;;4973695;28;20106;-80
2023/07/17 04:20:13;;;;;;;7.07;4.07;;;16.60;99.90;;;;;;4967116;28;20110;-79
2023/07/17 04:22:39;;;;;;;8.15;4.28;;;16.60;99.90;;;;;;4965797;28;20031;-79
2023/07/17 04:25:05;;;;;;;6.80;4.28;;;16.60;99.90;;;;;;4968126;28;20039;-80
2023/07/17 04:27:32;;;;;;;7.32;3.78;;;16.50;99.90;;;;;;4964800;28;20327;-80
2023/07/17 04:29:59;;;;;;;3.72;3.40;;;16.40;99.90;;;;;;4978757;28;20522;-80
2023/07/17 04:32:26;;;;;;;5.18;3.70;;;16.40;99.90;;;;;;4961714;28;20051;-79
2023/07/17 04:34:51;;;;;;;5.45;3.97;;;16.50;99.90;;;;;;4978174;28;20031;-78
2023/07/17 04:37:21;;;;;;;5.72;3.72;;;16.50;99.90;;;;;;4963580;28;20078;-78
2023/07/17 04:39:47;;;;;;;5.05;3.85;;;16.50;99.90;;;;;;4959375;28;20110;-80
2023/07/17 04:42:14;;;;;;;6.53;3.70;;;16.60;99.90;;;;;;4979394;28;20275;-80
2023/07/17 04:44:40;;;;;;;5.88;3.58;;;16.70;99.90;;;;;;4971263;28;20039;-80
2023/07/17 04:47:05;;;;;;;6.90;3.50;;;16.70;99.90;;;;;;4976211;28;20042;-80
2023/07/17 04:49:32;;;;;;;7.35;3.90;;;16.80;99.90;;;;;;4971520;28;20058;-80
2023/07/17 04:51:57;;;;;;;4.93;3.40;;;16.90;99.90;;;;;;4964959;28;20043;-81
2023/07/17 04:54:23;;;;;;;5.47;3.22;;;16.90;99.90;;;;;;4968067;28;20034;-79
2023/07/17 04:56:50;;;;;;;7.47;3.75;;;17.00;99.90;;;;;;4947028;28;20405;-79
2023/07/17 04:59:20;;;;;;;3.92;3.40;;;17.00;99.90;;;;;;4965184;28;20032;-79
2023/07/17 05:01:45;;;;;;;4.90;3.30;;;17.10;99.90;;;;;;4970209;28;20042;-82
2023/07/17 05:04:11;;;;;;;4.60;3.60;;;17.10;99.90;;;;;;4971761;28;20027;-80
2023/07/17 05:06:37;;;;;;;4.82;3.65;;;17.20;99.90;;;;;;4976138;28;20039;-82
2023/07/17 05:09:03;;;;;;;7.15;4.30;;;17.20;99.90;;;;;;4969983;28;20105;-82
2023/07/17 05:11:29;;;;;;;5.82;3.53;;;17.30;99.90;;;;;;4963455;28;20102;-82
2023/07/17 05:13:55;;;;;;;6.03;3.20;;;17.30;99.90;;;;;;4964890;28;20065;-80
2023/07/17 05:16:21;;;;;;;4.93;3.50;;;17.40;99.90;;;;;;4957774;28;20027;-79
2023/07/17 05:18:47;;;;;;;7.05;3.92;;;17.40;99.90;;;;;;4955999;28;20031;-80
2023/07/17 05:21:13;;;;;;;6.00;3.25;;;17.50;99.90;;;;;;4968882;28;20074;-79
2023/07/17 05:23:40;;;;;;;8.30;3.60;;;17.50;99.90;;;;;;4960892;28;20039;-80
2023/07/17 05:26:07;;;;;;;6.07;3.80;;;17.50;99.90;;;;;;4975576;28;20050;-79
2023/07/17 05:28:34;;;;;;;7.38;3.50;;;17.50;99.90;;;;;;4955591;28;20035;-80
2023/07/17 05:30:59;;;;;;;4.72;3.53;;;17.60;99.90;;;;;;4980818;28;20255;-80
2023/07/17 05:33:25;;;;;;;3.17;2.88;;;17.60;99.90;;;;;;4970109;28;20425;-79
2023/07/17 05:35:52;;;;;;;6.05;3.75;;;17.60;99.90;;;;;;4970108;28;20029;-80
2023/07/17 05:38:19;;;;;;;6.47;3.30;;;17.60;99.90;;;;;;4976431;28;20015;-80
2023/07/17 05:40:46;;;;;;;4.93;3.00;;;17.70;99.90;;;;;;4972268;28;20031;-79
2023/07/17 05:43:12;;;;;;;5.60;3.58;;;17.70;99.90;;;;;;4977632;28;20512;-79
2023/07/17 05:45:45;;;;;;;8.65;3.45;;;17.80;99.90;;;;;;4966651;28;20070;-79
2023/07/17 05:48:11;;;;;;;4.50;3.20;;;17.90;99.90;;;;;;4965480;28;20043;-79
2023/07/17 05:50:36;;;;;;;6.47;3.58;;;18.00;99.90;;;;;;4966229;28;20581;-80
2023/07/17 05:53:03;;;;;;;6.28;3.30;;;18.10;99.90;;;;;;4973555;28;20027;-79
2023/07/17 05:55:29;;;;;;;9.27;3.40;;;18.20;99.90;;;;;;4968323;28;20031;-81
2023/07/17 05:57:55;;;;;;;5.32;3.08;;;18.30;99.90;;;;;;4964080;28;20398;-82
2023/07/17 06:00:21;;;;;;;3.83;3.05;;;18.60;99.90;;;;;;4966481;28;20015;-81
2023/07/17 06:02:47;;;;;;;6.10;3.22;;;19.10;99.90;;;;;;4962513;28;20043;-81
2023/07/17 06:05:14;;;;;;;5.00;2.97;;;19.50;99.90;;;;;;4963936;28;20035;-81
2023/07/17 06:07:40;;;;;;;5.97;3.45;;;20.00;99.90;;;;;;4969319;28;20166;-80
2023/07/17 06:10:07;;;;;;;4.13;3.10;;;20.40;99.90;;;;;;4954499;28;20039;-78
2023/07/17 06:12:33;;;;;;;4.07;2.75;;;20.80;99.90;;;;;;4959259;28;20042;-82
2023/07/17 06:14:59;;;;;;;8.70;3.20;;;21.20;99.90;;;;;;4957901;28;20042;-82
2023/07/17 06:17:25;;;;;;;6.43;2.95;;;21.60;99.90;;;;;;4958759;28;20028;-80
2023/07/17 06:19:51;;;;;;;5.53;2.70;;;22.00;99.30;;;;;;4960165;28;20498;-80
2023/07/17 06:22:17;;;;;;;4.80;2.72;;;22.30;98.00;;;;;;4955838;28;20046;-81
2023/07/17 06:24:42;;;;;;;6.88;3.08;;;22.60;96.90;;;;;;4956755;28;20034;-81
2023/07/17 06:27:08;;;;;;;5.88;2.83;;;22.90;96.20;;;;;;4962652;28;20097;-80
2023/07/17 06:29:34;;;;;;;9.05;2.92;;;23.10;95.10;;;;;;4955360;28;20552;-80
2023/07/17 06:31:59;;;;;;;6.65;2.80;;;23.40;94.00;;;;;;4967046;28;20777;-83
2023/07/17 06:34:25;;;;;;;9.95;3.47;;;23.70;92.90;;;;;;4962307;28;20039;-81
2023/07/17 06:36:51;;;;;;;6.72;2.50;;;24.00;91.00;;;;;;4962397;28;20050;-81
2023/07/17 06:39:17;;;;;;;5.50;3.10;;;24.30;90.90;;;;;;4954461;28;20027;-81
2023/07/17 06:41:42;;;;;;;5.45;3.10;;;24.40;90.40;;;;;;4956851;28;20114;-82
2023/07/17 06:44:08;;;;;;;4.35;2.95;;;24.70;89.50;;;;;;4946029;29;20049;-80
2023/07/17 06:46:34;;;;;;;5.40;2.55;;;25.00;87.90;;;;;;4955613;28;20049;-81
2023/07/17 06:49:00;;;;;;;3.30;2.63;;;25.30;86.20;;;;;;4955304;28;20421;-81
2023/07/17 06:51:25;;;;;;;4.10;2.63;;;25.50;82.60;;;;;;4967106;28;20027;-80
2023/07/17 06:53:53;;;;;;;4.43;2.92;;;25.80;82.20;;;;;;4955575;28;20042;-79
2023/07/17 06:56:18;;;;;;;3.28;2.78;;;26.00;78.10;;;;;;4956995;28;20514;-80
2023/07/17 06:58:44;;;;;;;7.75;5.78;;;26.10;78.70;;;;;;4954250;28;20035;-81
2023/07/17 07:01:11;;;;;;;4.35;3.00;;;26.20;77.90;;;;;;4964196;28;20057;-79
2023/07/17 07:03:37;;;;;;;5.10;3.03;;;26.40;76.20;;;;;;4958893;28;20433;-80
2023/07/17 07:06:06;;;;;;;4.03;2.92;;;26.60;73.30;;;;;;4955771;28;20075;-80
2023/07/17 07:08:32;;;;;;;4.80;2.90;;;26.50;74.30;;;;;;4957869;28;20038;-81
2023/07/17 07:11:00;;;;;;;7.40;2.80;;;26.70;73.40;;;;;;4951414;28;20398;-80
2023/07/17 07:13:26;;;;;;;3.97;2.90;;;26.80;71.80;;;;;;4951913;28;20462;-79
2023/07/17 07:15:53;;;;;;;5.57;2.58;;;26.80;73.40;;;;;;4953618;28;20035;-79
2023/07/17 07:18:19;;;;;;;5.82;2.90;;;26.90;70.30;;;;;;4953272;28;20062;-79
2023/07/17 07:20:46;;;;;;;5.40;2.80;;;27.00;71.70;;;;;;4957433;28;20458;-76
2023/07/17 07:23:12;;;;;;;6.38;3.00;;;27.00;69.70;;;;;;4953298;28;20378;-81
2023/07/17 07:25:37;;;;;;;5.45;3.15;;;26.90;69.80;;;;;;4956766;28;20027;-80
2023/07/17 07:28:04;;;;;;;5.68;2.72;;;26.90;72.20;;;;;;4952113;28;20090;-81
2023/07/17 07:30:30;;;;;;;6.47;2.88;;;27.00;73.00;;;;;;4954621;28;20118;-77
2023/07/17 07:32:56;;;;;;;4.57;2.88;;;27.00;70.80;;;;;;4959550;28;20058;-80
2023/07/17 07:35:22;;;;;;;7.53;3.03;;;26.90;72.50;;;;;;4961720;28;20581;-77
2023/07/17 07:37:48;;;;;;;6.18;3.00;;;26.80;72.70;;;;;;4959266;28;20031;-81
2023/07/17 07:40:15;;;;;;;5.50;3.22;;;26.70;73.40;;;;;;4959241;28;20038;-82
2023/07/17 07:42:42;;;;;;;4.63;3.05;;;26.70;70.10;;;;;;4961759;28;20046;-81
2023/07/17 07:45:09;;;;;;;5.75;2.90;;;26.30;69.20;;;;;;4954669;28;20038;-80
2023/07/17 07:47:35;;;;;;;6.95;2.90;;;26.00;73.90;;;;;;4959593;28;20026;-78
2023/07/17 07:50:01;;;;;;;4.75;3.08;;;26.00;74.20;;;;;;4955699;28;20493;-80
2023/07/17 07:52:27;;;;;;;5.63;3.22;;;26.00;74.90;;;;;;4965680;28;20038;-81
2023/07/17 07:54:53;;;;;;;4.05;2.67;;;26.00;72.40;;;;;;4959479;28;20034;-79
2023/07/17 07:57:19;;;;;;;5.72;2.72;;;26.00;70.90;;;;;;4964460;28;20020;-78
2023/07/17 07:59:45;;;;;;;5.05;2.60;;;26.00;74.60;;;;;;4956963;28;20114;-78
2023/07/17 08:02:11;;;;;;;4.80;2.60;;;25.90;75.90;;;;;;4953851;28;20080;-81
2023/07/17 08:04:38;;;;;;;6.00;3.10;;;25.70;76.90;;;;;;4947074;28;20066;-79
2023/07/17 08:07:04;;;;;;;4.80;2.50;;;25.70;76.60;;;;;;4948918;28;20074;-83
2023/07/17 08:09:30;;;;;;;8.13;4.60;;;25.80;73.10;;;;;;4951805;28;20040;-80
2023/07/17 08:11:55;;;;;;;10.25;5.15;;;26.00;69.20;;;;;;4954882;28;20097;-79
2023/07/17 08:14:21;;;;;;;8.93;3.22;;;25.90;70.40;;;;;;4946084;28;20150;-82
2023/07/17 08:16:48;;;;;;;6.90;3.03;;;25.80;74.00;;;;;;4946819;28;20138;-80
2023/07/17 08:19:14;;;;;;;4.28;2.97;;;25.70;77.00;;;;;;4951086;28;20397;-79
2023/07/17 08:21:40;;;;;;;5.10;2.58;;;25.60;76.50;;;;;;4948708;28;20062;-80
2023/07/17 08:24:06;;;;;;;4.72;2.78;;;25.60;71.80;;;;;;4949424;28;20043;-80
2023/07/17 08:26:32;;;;;;;4.30;2.72;;;25.80;72.00;;;;;;4955300;28;20035;-80
2023/07/17 08:29:00;;;;;;;5.15;2.80;;;25.90;71.20;;;;;;4956771;28;20058;-81
2023/07/17 08:31:26;;;;;;;6.03;2.85;;;25.80;68.40;;;;;;4953883;28;20030;-80
2023/07/17 08:33:52;;;;;;;7.10;3.15;;;26.00;74.40;;;;;;4960740;28;20041;-80
2023/07/17 08:36:19;;;;;;;7.15;2.97;;;26.40;71.10;;;;;;4955288;28;20027;-81
2023/07/17 08:38:46;;;;;;;6.57;3.50;;;26.80;68.50;;;;;;4943955;28;20027;-80
2023/07/17 08:41:13;;;;;;;6.10;2.85;;;27.00;68.70;;;;;;4954876;28;20048;-80
2023/07/17 08:43:39;;;;;;;7.10;3.10;;;26.90;67.10;;;;;;4950086;28;20159;-79
2023/07/17 08:46:06;;;;;;;5.72;2.92;;;26.90;69.20;;;;;;4956661;28;20063;-82
2023/07/17 08:48:32;;;;;;;4.25;2.90;;;26.40;68.70;;;;;;4956926;28;20035;-81
2023/07/17 08:50:58;;;;;;;5.53;3.20;;;26.20;65.80;;;;;;4958806;28;20029;-81
2023/07/17 08:53:27;;;;;;;5.68;3.83;;;26.10;67.40;;;;;;4956698;28;20067;-77
2023/07/17 08:55:55;;;;;;;6.05;3.70;;;26.00;65.60;;;;;;4961324;28;20062;-79
2023/07/17 08:58:23;;;;;;;4.57;3.63;;;25.80;66.60;;;;;;4952732;29;20126;-81
2023/07/17 09:00:50;;;;;;;6.80;3.35;;;25.80;70.00;;;;;;4954701;28;20035;-83
2023/07/17 09:03:18;;;;;;;7.65;3.97;;;25.80;71.10;;;;;;4955530;28;20039;-81
2023/07/17 09:05:44;;;;;;;5.55;3.75;;;25.70;64.70;;;;;;4958281;28;20082;-82
2023/07/17 09:08:11;;;;;;;5.32;3.50;;;25.70;66.30;;;;;;4957460;28;20043;-80
2023/07/17 09:10:37;;;;;;;8.73;3.67;;;25.70;67.80;;;;;;4967988;28;20063;-80
2023/07/17 09:13:04;;;;;;;10.00;3.65;;;25.20;65.80;;;;;;4965239;28;20035;-80
2023/07/17 09:15:32;;;;;;;6.07;3.53;;;25.00;71.40;;;;;;4965690;28;20046;-80
2023/07/17 09:17:58;;;;;;;6.90;3.67;;;24.90;71.00;;;;;;4954822;28;20027;-82
2023/07/17 09:20:24;;;;;;;4.70;3.78;;;24.50;71.40;;;;;;4957177;28;20035;-81
2023/07/17 09:22:55;;;;;;;7.38;4.15;;;24.40;73.60;;;;;;4968225;28;20086;-81
2023/07/17 09:25:25;;;;;;;7.63;4.03;;;24.30;73.70;;;;;;4957680;28;20051;-81
2023/07/17 09:27:51;;;;;;;6.50;4.03;;;24.20;75.60;;;;;;4976867;28;20046;-81
2023/07/17 09:30:19;;;;;;;7.68;3.78;;;24.00;77.70;;;;;;4991167;28;20035;-80
2023/07/17 09:32:46;;;;;;;5.88;4.15;;;23.80;78.90;;;;;;4959310;28;20039;-81
2023/07/17 09:35:14;;;;;;;4.78;3.97;;;23.80;77.70;;;;;;4956898;28;20383;-80
2023/07/17 09:37:44;;;;;;;6.70;4.10;;;23.70;76.50;;;;;;4961600;28;20585;-83
2023/07/17 09:40:13;;;;;;;6.70;4.13;;;23.50;77.30;;;;;;4962605;28;20478;-82
2023/07/17 09:42:42;;;;;;;5.32;4.03;;;23.40;78.40;;;;;;4950477;28;20050;-80
2023/07/17 09:45:11;;;;;;;8.82;4.38;;;23.40;78.40;;;;;;4955671;28;20039;-82
2023/07/17 09:47:37;;;;;;;11.05;4.22;;;23.40;74.60;;;;;;4962412;28;20027;-82
2023/07/17 09:50:04;;;;;;;8.32;4.32;;;23.30;75.90;;;;;;4960787;28;20049;-81
2023/07/17 09:52:31;;;;;;;6.38;3.97;;;23.30;79.80;;;;;;4968161;28;20429;-81
2023/07/17 09:55:00;;;;;;;5.68;4.03;;;23.30;79.40;;;;;;4968893;28;20027;-82
2023/07/17 09:57:37;;;;;;;6.97;4.28;;;23.30;78.70;;;;;;4974123;28;20553;-82
2023/07/17 10:00:12;;;;;;;5.80;4.07;;;23.30;74.80;;;;;;4958864;28;20517;-81
2023/07/17 10:03:01;;;;;;;6.95;4.95;;;23.50;77.90;;;;;;4965629;28;20035;-81
2023/07/17 10:05:28;;;;;;;5.68;4.00;;;23.50;73.00;;;;;;4956265;28;20038;-80
2023/07/17 10:07:56;;;;;;;8.40;4.03;;;23.60;76.40;;;;;;4962144;28;20039;-80
2023/07/17 10:10:22;;;;;;;6.13;3.92;;;23.70;71.40;;;;;;4955145;28;20027;-81
2023/07/17 10:12:48;;;;;;;7.75;4.70;;;23.80;75.30;;;;;;4972864;28;20034;-80
2023/07/17 10:15:15;;;;;;;7.13;4.28;;;23.90;74.10;;;;;;4956441;28;20165;-81
2023/07/17 10:17:40;;;;;;;8.70;4.70;;;24.20;76.40;;;;;;4955579;28;20034;-81
2023/07/17 10:20:11;;;;;;;7.22;4.30;;;24.40;72.60;;;;;;4963705;28;20034;-82
2023/07/17 10:22:46;;;;;;;9.20;4.18;;;24.70;71.10;;;;;;4959107;28;20111;-83
2023/07/17 10:25:17;;;;;;;8.07;4.20;;;24.90;68.50;;;;;;4954827;28;20046;-80
2023/07/17 10:27:59;;;;;;;9.40;4.82;;;25.00;65.20;;;;;;4963953;28;20072;-82
2023/07/17 10:30:37;;;;;;;7.05;4.20;;;25.10;68.20;;;;;;4956590;28;20053;-80
2023/07/17 10:33:10;;;;;;;7.95;4.00;;;25.20;67.90;;;;;;4964621;28;20043;-82
2023/07/17 10:35:46;;;;;;;8.80;5.38;;;25.30;64.90;;;;;;4972927;28;20035;-78
2023/07/17 10:38:14;;;;;;;6.80;4.30;;;25.50;67.70;;;;;;4973421;28;20042;-79
2023/07/17 10:40:40;;;;;;;7.28;4.13;;;25.60;67.50;;;;;;4961879;28;20029;-79
2023/07/17 10:43:16;;;;;;;7.07;4.20;;;25.80;67.90;;;;;;4965942;28;20026;-81
2023/07/17 10:45:43;;;;;;;5.32;4.03;;;25.90;60.20;;;;;;4985144;28;20034;-80
2023/07/17 10:48:11;;;;;;;6.68;4.07;;;25.80;61.40;;;;;;4958613;28;20090;-81
2023/07/17 10:50:39;;;;;;;7.28;4.47;;;25.80;62.30;;;;;;4959268;28;20058;-81
2023/07/17 10:53:06;;;;;;;6.40;3.70;;;25.70;65.60;;;;;;4975305;28;20409;-82
2023/07/17 10:55:32;;;;;;;7.50;4.00;;;25.80;64.80;;;;;;4959568;28;20054;-82
2023/07/17 10:58:00;;;;;;;6.93;3.97;;;25.90;63.90;;;;;;4975030;28;20147;-81
2023/07/17 11:00:26;;;;;;;5.22;3.70;;;26.00;63.90;;;;;;4957742;28;20031;-82
2023/07/17 11:02:54;;;;;;;6.70;4.55;;;26.20;61.40;;;;;;4955385;28;20050;-81
2023/07/17 11:05:20;;;;;;;5.72;3.88;;;26.30;60.80;;;;;;4952034;28;20031;-79
2023/07/17 11:07:46;;;;;;;5.25;3.67;;;26.30;58.80;;;;;;4956033;28;20531;-80
2023/07/17 11:10:13;;;;;;;5.55;3.90;;;26.40;58.70;;;;;;4949901;28;20062;-80
2023/07/17 11:12:39;;;;;;;5.30;3.47;;;26.40;56.90;;;;;;4952019;28;20026;-81
2023/07/17 11:15:16;;;;;;;5.22;3.63;;;26.30;59.50;;;;;;4954826;28;20039;-80
2023/07/17 11:17:42;;;;;;;8.70;4.38;;;26.40;61.80;;;;;;4955022;28;20094;-80
2023/07/17 11:20:08;;;;;;;7.38;4.38;;;26.50;62.50;;;;;;4955351;28;20022;-79
2023/07/17 11:22:34;;;;;;;5.32;3.88;;;26.60;60.30;;;;;;4958594;28;20027;-80
2023/07/17 11:25:00;;;;;;;5.93;3.95;;;26.60;62.70;;;;;;4959479;28;20033;-79
2023/07/17 11:27:26;;;;;;;10.45;3.90;;;26.60;60.10;;;;;;4960034;28;20035;-79
2023/07/17 11:29:53;;;;;;;4.95;3.78;;;26.50;56.40;;;;;;4958233;28;20042;-79
2023/07/17 11:32:20;;;;;;;6.45;3.83;;;26.70;59.70;;;;;;4958593;28;20035;-79
2023/07/17 11:34:54;;;;;;;7.55;4.18;;;26.80;57.90;;;;;;4961100;28;20027;-79
2023/07/17 11:37:35;;;;;;;4.82;3.97;;;26.90;59.60;;;;;;4952565;28;20039;-79
2023/07/17 11:40:05;;;;;;;6.40;3.85;;;26.80;57.70;;;;;;4949678;29;21942;-80
2023/07/17 11:42:55;;;;;;;7.32;3.95;;;26.90;61.20;;;;;;4962808;28;20039;-80
2023/07/17 11:45:24;;;;;;;4.20;3.72;;;27.00;59.50;;;;;;4964846;28;20121;-79
2023/07/17 11:47:52;;;;;;;4.90;4.03;;;27.00;56.20;;;;;;4935553;29;20126;-78
2023/07/17 11:50:24;;;;;;;6.10;3.90;;;27.20;56.70;;;;;;4941043;28;20027;-78
2023/07/17 11:53:03;;;;;;;5.13;3.97;;;27.20;59.40;;;;;;4962540;28;20027;-82
2023/07/17 11:55:40;;;;;;;5.85;3.63;;;27.30;55.90;;;;;;4970326;28;20121;-80
2023/07/17 11:58:20;;;;;;;8.80;4.00;;;27.30;55.70;;;;;;4961329;28;20370;-80
2023/07/17 12:00:48;;;;;;;6.65;3.83;;;27.20;55.30;;;;;;4958324;28;20066;-78
2023/07/17 12:03:17;;;;;;;5.30;3.67;;;27.20;56.90;;;;;;4951258;28;20031;-77
2023/07/17 12:05:43;;;;;;;6.00;4.45;;;27.10;57.00;;;;;;4959988;28;20061;-78
2023/07/17 12:08:09;;;;;;;6.03;3.70;;;27.00;56.30;;;;;;4966675;28;20493;-80
2023/07/17 12:10:35;;;;;;;5.38;3.65;;;27.00;57.80;;;;;;4963202;28;20031;-78
2023/07/17 12:13:02;;;;;;;5.80;4.22;;;27.00;59.70;;;;;;4963024;28;20122;-80
2023/07/17 12:15:29;;;;;;;7.75;4.18;;;27.00;57.30;;;;;;4953925;28;20047;-78
2023/07/17 12:17:55;;;;;;;5.68;3.70;;;27.10;57.90;;;;;;4963533;28;20461;-79
2023/07/17 12:20:22;;;;;;;5.32;3.42;;;27.20;60.00;;;;;;4967436;28;20039;-79
2023/07/17 12:22:50;;;;;;;5.78;4.15;;;27.40;59.20;;;;;;4972983;28;20037;-79
2023/07/17 12:25:16;;;;;;;5.18;3.88;;;27.60;57.60;;;;;;4963994;28;20039;-79
2023/07/17 12:27:42;;;;;;;5.30;3.50;;;27.80;55.40;;;;;;4966440;28;20030;-79
2023/07/17 12:30:09;;;;;;;7.22;4.30;;;27.80;55.00;;;;;;4973418;28;20050;-79
2023/07/17 12:32:35;;;;;;;6.90;3.90;;;27.70;54.90;;;;;;4959876;28;20086;-79
2023/07/17 12:35:01;;;;;;;6.65;3.63;;;27.50;55.10;;;;;;4951734;29;20595;-80
2023/07/17 12:37:30;;;;;;;6.05;3.92;;;27.30;57.70;;;;;;4966440;28;20504;-81
2023/07/17 12:39:56;;;;;;;4.97;3.72;;;27.40;58.10;;;;;;4971269;28;20686;-80
2023/07/17 12:42:22;;;;;;;4.97;3.47;;;27.40;57.40;;;;;;4967354;28;20481;-79
2023/07/17 12:44:48;;;;;;;7.85;3.83;;;27.50;55.70;;;;;;4958116;28;20086;-78